sensor_id;sensor_type;location;lat;lon;timestamp;pressure;altitude;pressure_sealevel;temperature;humidity
31225;BME280;17847;31.524;74.366;2024-01-07T00:00:23;99420.00;;;7.42;nan
31225;BME280;17847;31.524;74.366;2024-01-07T00:02:52;99417.13;;;7.36;nan
31225;BME280;17847;31.524;74.366;2024-01-07T00:05:22;99417.66;;;7.39;nan
31225;BME280;17847;31.524;74.366;2024-01-07T00:07:51;99412.75;;;7.44;nan
31225;BME280;17847;31.524;74.366;2024-01-07T00:10:21;99414.25;;;7.47;nan
31225;BME280;17847;31.524;74.366;2024-01-07T00:12:50;99419.47;;;7.39;nan
31225;BME280;17847;31.524;74.366;2024-01-07T00:15:21;99416.72;;;7.22;nan
31225;BME280;17847;31.524;74.366;2024-01-07T00:17:50;99414.03;;;7.40;nan
31225;BME280;17847;31.524;74.366;2024-01-07T00:20:20;99412.84;;;7.35;nan
31225;BME280;17847;31.524;74.366;2024-01-07T00:22:49;99416.25;;;7.27;nan
31225;BME280;17847;31.524;74.366;2024-01-07T00:25:18;99412.41;;;7.21;nan
31225;BME280;17847;31.524;74.366;2024-01-07T00:27:48;99413.88;;;7.16;nan
31225;BME280;17847;31.524;74.366;2024-01-07T00:30:19;99422.56;;;7.34;nan
31225;BME280;17847;31.524;74.366;2024-01-07T00:32:48;99416.66;;;7.40;nan
31225;BME280;17847;31.524;74.366;2024-01-07T00:35:20;99417.50;;;7.66;nan
31225;BME280;17847;31.524;74.366;2024-01-07T00:37:50;99422.06;;;7.56;nan
31225;BME280;17847;31.524;74.366;2024-01-07T00:40:20;99422.53;;;7.52;nan
31225;BME280;17847;31.524;74.366;2024-01-07T00:42:52;99422.16;;;7.47;nan
31225;BME280;17847;31.524;74.366;2024-01-07T00:45:22;99431.03;;;7.46;nan
31225;BME280;17847;31.524;74.366;2024-01-07T00:47:51;99435.75;;;7.34;nan
31225;BME280;17847;31.524;74.366;2024-01-07T00:50:23;99428.31;;;7.30;nan
31225;BME280;17847;31.524;74.366;2024-01-07T00:52:53;99433.59;;;7.30;nan
31225;BME280;17847;31.524;74.366;2024-01-07T00:55:22;99435.94;;;7.41;nan
31225;BME280;17847;31.524;74.366;2024-01-07T00:57:52;99437.09;;;7.38;nan
31225;BME280;17847;31.524;74.366;2024-01-07T01:00:22;99438.53;;;7.33;nan
31225;BME280;17847;31.524;74.366;2024-01-07T01:02:51;99441.41;;;7.21;nan
31225;BME280;17847;31.524;74.366;2024-01-07T01:05:20;99452.69;;;7.14;nan
31225;BME280;17847;31.524;74.366;2024-01-07T01:07:50;99459.84;;;7.21;nan
31225;BME280;17847;31.524;74.366;2024-01-07T01:10:21;99464.44;;;7.19;nan
31225;BME280;17847;31.524;74.366;2024-01-07T01:12:50;99467.06;;;7.19;nan
31225;BME280;17847;31.524;74.366;2024-01-07T01:15:24;99467.75;;;7.21;nan
31225;BME280;17847;31.524;74.366;2024-01-07T01:17:54;99472.09;;;7.31;nan
31225;BME280;17847;31.524;74.366;2024-01-07T01:20:23;99465.53;;;7.35;nan
31225;BME280;17847;31.524;74.366;2024-01-07T01:22:53;99469.69;;;7.37;nan
31225;BME280;17847;31.524;74.366;2024-01-07T01:25:22;99474.28;;;7.35;nan
31225;BME280;17847;31.524;74.366;2024-01-07T01:27:52;99477.53;;;7.29;nan
31225;BME280;17847;31.524;74.366;2024-01-07T01:30:21;99479.81;;;7.06;nan
31225;BME280;17847;31.524;74.366;2024-01-07T01:32:51;99484.47;;;7.12;nan
31225;BME280;17847;31.524;74.366;2024-01-07T01:35:23;99479.72;;;7.16;nan
31225;BME280;17847;31.524;74.366;2024-01-07T01:37:53;99488.16;;;7.02;nan
31225;BME280;17847;31.524;74.366;2024-01-07T01:40:26;99491.09;;;7.16;nan
31225;BME280;17847;31.524;74.366;2024-01-07T01:42:56;99493.72;;;7.16;nan
31225;BME280;17847;31.524;74.366;2024-01-07T01:45:25;99487.84;;;7.22;nan
31225;BME280;17847;31.524;74.366;2024-01-07T01:47:55;99483.41;;;7.05;nan
31225;BME280;17847;31.524;74.366;2024-01-07T01:50:25;99496.44;;;7.07;nan
31225;BME280;17847;31.524;74.366;2024-01-07T01:52:56;99498.09;;;7.08;nan
31225;BME280;17847;31.524;74.366;2024-01-07T01:55:25;99497.78;;;7.11;nan
31225;BME280;17847;31.524;74.366;2024-01-07T01:57:56;99503.66;;;7.05;nan
31225;BME280;17847;31.524;74.366;2024-01-07T02:00:28;99499.91;;;7.07;nan
31225;BME280;17847;31.524;74.366;2024-01-07T02:02:58;99506.66;;;7.10;nan
31225;BME280;17847;31.524;74.366;2024-01-07T02:05:29;99523.88;;;7.04;nan
31225;BME280;17847;31.524;74.366;2024-01-07T02:07:59;99528.78;;;6.99;nan
31225;BME280;17847;31.524;74.366;2024-01-07T02:10:28;99521.25;;;7.04;nan
31225;BME280;17847;31.524;74.366;2024-01-07T02:13:07;99520.06;;;7.16;nan
31225;BME280;17847;31.524;74.366;2024-01-07T02:15:37;99524.97;;;7.11;nan
31225;BME280;17847;31.524;74.366;2024-01-07T02:18:06;99519.84;;;7.10;nan
31225;BME280;17847;31.524;74.366;2024-01-07T02:20:36;99535.22;;;7.58;nan
31225;BME280;17847;31.524;74.366;2024-01-07T02:23:06;99539.63;;;7.49;nan
31225;BME280;17847;31.524;74.366;2024-01-07T02:25:38;99545.88;;;7.31;nan
31225;BME280;17847;31.524;74.366;2024-01-07T02:28:07;99541.44;;;7.31;nan
31225;BME280;17847;31.524;74.366;2024-01-07T02:30:37;99551.97;;;7.31;nan
31225;BME280;17847;31.524;74.366;2024-01-07T02:33:07;99559.59;;;7.16;nan
31225;BME280;17847;31.524;74.366;2024-01-07T02:35:38;99555.75;;;7.11;nan
31225;BME280;17847;31.524;74.366;2024-01-07T02:38:07;99572.44;;;7.19;nan
31225;BME280;17847;31.524;74.366;2024-01-07T02:40:37;99565.31;;;7.12;nan
31225;BME280;17847;31.524;74.366;2024-01-07T02:43:07;99577.94;;;7.26;nan
31225;BME280;17847;31.524;74.366;2024-01-07T02:45:37;99581.78;;;7.14;nan
31225;BME280;17847;31.524;74.366;2024-01-07T02:48:06;99586.69;;;6.99;nan
31225;BME280;17847;31.524;74.366;2024-01-07T02:50:36;99586.06;;;7.15;nan
31225;BME280;17847;31.524;74.366;2024-01-07T02:53:05;99591.16;;;6.99;nan
31225;BME280;17847;31.524;74.366;2024-01-07T02:55:37;99592.97;;;6.98;nan
31225;BME280;17847;31.524;74.366;2024-01-07T02:58:06;99602.63;;;7.07;nan
31225;BME280;17847;31.524;74.366;2024-01-07T03:00:36;99601.94;;;7.05;nan
31225;BME280;17847;31.524;74.366;2024-01-07T03:03:05;99598.47;;;7.05;nan
31225;BME280;17847;31.524;74.366;2024-01-07T03:05:35;99609.91;;;7.13;nan
31225;BME280;17847;31.524;74.366;2024-01-07T03:08:04;99607.19;;;7.05;nan
31225;BME280;17847;31.524;74.366;2024-01-07T03:10:34;99613.81;;;6.82;nan
31225;BME280;17847;31.524;74.366;2024-01-07T03:13:04;99614.47;;;6.94;nan
31225;BME280;17847;31.524;74.366;2024-01-07T03:15:34;99617.34;;;6.73;nan
31225;BME280;17847;31.524;74.366;2024-01-07T03:18:04;99625.03;;;6.57;nan
31225;BME280;17847;31.524;74.366;2024-01-07T03:20:34;99628.94;;;6.80;nan
31225;BME280;17847;31.524;74.366;2024-01-07T03:23:03;99640.56;;;6.87;nan
31225;BME280;17847;31.524;74.366;2024-01-07T03:25:33;99644.47;;;7.10;nan
31225;BME280;17847;31.524;74.366;2024-01-07T03:28:02;99649.19;;;7.34;nan
31225;BME280;17847;31.524;74.366;2024-01-07T03:30:32;99655.81;;;7.11;nan
31225;BME280;17847;31.524;74.366;2024-01-07T03:33:02;99666.03;;;7.41;nan
31225;BME280;17847;31.524;74.366;2024-01-07T03:35:31;99670.25;;;7.07;nan
31225;BME280;17847;31.524;74.366;2024-01-07T03:38:01;99671.72;;;7.19;nan
31225;BME280;17847;31.524;74.366;2024-01-07T03:40:31;99673.16;;;7.31;nan
31225;BME280;17847;31.524;74.366;2024-01-07T03:43:00;99683.97;;;7.10;nan
31225;BME280;17847;31.524;74.366;2024-01-07T03:45:30;99689.94;;;7.12;nan
31225;BME280;17847;31.524;74.366;2024-01-07T03:48:00;99703.97;;;7.03;nan
31225;BME280;17847;31.524;74.366;2024-01-07T03:50:30;99706.69;;;7.11;nan
31225;BME280;17847;31.524;74.366;2024-01-07T03:52:59;99708.50;;;7.38;nan
31225;BME280;17847;31.524;74.366;2024-01-07T03:55:29;99721.38;;;7.14;nan
31225;BME280;17847;31.524;74.366;2024-01-07T03:57:58;99721.91;;;7.17;nan
31225;BME280;17847;31.524;74.366;2024-01-07T04:00:27;99724.28;;;7.20;nan
31225;BME280;17847;31.524;74.366;2024-01-07T04:02:57;99731.38;;;7.38;nan
31225;BME280;17847;31.524;74.366;2024-01-07T04:05:26;99732.84;;;7.50;nan
31225;BME280;17847;31.524;74.366;2024-01-07T04:07:59;99737.28;;;7.49;nan
31225;BME280;17847;31.524;74.366;2024-01-07T04:10:29;99740.28;;;7.82;nan
31225;BME280;17847;31.524;74.366;2024-01-07T04:12:58;99741.91;;;7.65;nan
31225;BME280;17847;31.524;74.366;2024-01-07T04:15:28;99757.09;;;7.98;nan
31225;BME280;17847;31.524;74.366;2024-01-07T04:18:04;99760.09;;;8.03;nan
31225;BME280;17847;31.524;74.366;2024-01-07T04:20:34;99753.16;;;7.85;nan
31225;BME280;17847;31.524;74.366;2024-01-07T04:23:04;99753.41;;;8.09;nan
31225;BME280;17847;31.524;74.366;2024-01-07T04:25:33;99752.25;;;7.76;nan
31225;BME280;17847;31.524;74.366;2024-01-07T04:28:03;99760.69;;;7.97;nan
31225;BME280;17847;31.524;74.366;2024-01-07T04:30:32;99755.03;;;8.28;nan
31225;BME280;17847;31.524;74.366;2024-01-07T04:33:02;99759.06;;;7.96;nan
31225;BME280;17847;31.524;74.366;2024-01-07T04:35:32;99754.53;;;8.06;nan
31225;BME280;17847;31.524;74.366;2024-01-07T04:38:01;99753.53;;;8.07;nan
31225;BME280;17847;31.524;74.366;2024-01-07T04:40:31;99754.25;;;8.09;nan
31225;BME280;17847;31.524;74.366;2024-01-07T04:43:00;99747.25;;;8.36;nan
31225;BME280;17847;31.524;74.366;2024-01-07T04:45:30;99742.47;;;8.39;nan
31225;BME280;17847;31.524;74.366;2024-01-07T04:48:00;99750.06;;;8.25;nan
31225;BME280;17847;31.524;74.366;2024-01-07T04:50:29;99746.97;;;7.94;nan
31225;BME280;17847;31.524;74.366;2024-01-07T04:52:59;99751.72;;;8.26;nan
31225;BME280;17847;31.524;74.366;2024-01-07T04:55:30;99757.50;;;8.39;nan
31225;BME280;17847;31.524;74.366;2024-01-07T04:58:03;99752.19;;;8.21;nan
31225;BME280;17847;31.524;74.366;2024-01-07T05:00:34;99754.16;;;8.37;nan
31225;BME280;17847;31.524;74.366;2024-01-07T05:03:04;99761.84;;;8.48;nan
31225;BME280;17847;31.524;74.366;2024-01-07T05:05:33;99747.25;;;8.36;nan
31225;BME280;17847;31.524;74.366;2024-01-07T05:08:05;99746.69;;;8.14;nan
31225;BME280;17847;31.524;74.366;2024-01-07T05:10:34;99752.59;;;8.44;nan
31225;BME280;17847;31.524;74.366;2024-01-07T05:13:04;99751.84;;;8.34;nan
31225;BME280;17847;31.524;74.366;2024-01-07T05:15:35;99752.50;;;8.53;nan
31225;BME280;17847;31.524;74.366;2024-01-07T05:18:07;99752.56;;;8.26;nan
31225;BME280;17847;31.524;74.366;2024-01-07T05:20:38;99750.84;;;8.52;nan
31225;BME280;17847;31.524;74.366;2024-01-07T05:23:08;99744.13;;;8.58;nan
31225;BME280;17847;31.524;74.366;2024-01-07T05:25:37;99741.34;;;8.42;nan
31225;BME280;17847;31.524;74.366;2024-01-07T05:28:07;99743.25;;;8.75;nan
31225;BME280;17847;31.524;74.366;2024-01-07T05:30:37;99739.91;;;8.99;nan
31225;BME280;17847;31.524;74.366;2024-01-07T05:33:07;99735.59;;;8.72;nan
31225;BME280;17847;31.524;74.366;2024-01-07T05:35:37;99740.00;;;9.15;nan
31225;BME280;17847;31.524;74.366;2024-01-07T05:38:06;99740.09;;;9.39;nan
31225;BME280;17847;31.524;74.366;2024-01-07T05:40:35;99725.94;;;9.65;nan
31225;BME280;17847;31.524;74.366;2024-01-07T05:43:05;99727.44;;;9.59;nan
31225;BME280;17847;31.524;74.366;2024-01-07T05:45:34;99731.06;;;9.58;nan
31225;BME280;17847;31.524;74.366;2024-01-07T05:48:04;99729.91;;;9.53;nan
31225;BME280;17847;31.524;74.366;2024-01-07T05:50:34;99731.47;;;9.79;nan
31225;BME280;17847;31.524;74.366;2024-01-07T05:53:03;99729.03;;;10.02;nan
31225;BME280;17847;31.524;74.366;2024-01-07T05:55:33;99726.53;;;10.01;nan
31225;BME280;17847;31.524;74.366;2024-01-07T05:58:02;99720.31;;;10.34;nan
31225;BME280;17847;31.524;74.366;2024-01-07T06:00:32;99725.94;;;10.31;nan
31225;BME280;17847;31.524;74.366;2024-01-07T06:03:01;99722.78;;;10.52;nan
31225;BME280;17847;31.524;74.366;2024-01-07T06:05:30;99725.41;;;10.60;nan
31225;BME280;17847;31.524;74.366;2024-01-07T06:08:00;99727.09;;;10.53;nan
31225;BME280;17847;31.524;74.366;2024-01-07T06:10:29;99717.94;;;10.71;nan
31225;BME280;17847;31.524;74.366;2024-01-07T06:12:59;99713.97;;;10.84;nan
31225;BME280;17847;31.524;74.366;2024-01-07T06:15:29;99717.19;;;11.10;nan
31225;BME280;17847;31.524;74.366;2024-01-07T06:17:58;99720.44;;;11.20;nan
31225;BME280;17847;31.524;74.366;2024-01-07T06:20:28;99713.59;;;11.42;nan
31225;BME280;17847;31.524;74.366;2024-01-07T06:22:57;99716.97;;;11.58;nan
31225;BME280;17847;31.524;74.366;2024-01-07T06:25:27;99715.31;;;11.26;nan
31225;BME280;17847;31.524;74.366;2024-01-07T06:27:56;99707.31;;;10.88;nan
31225;BME280;17847;31.524;74.366;2024-01-07T06:30:25;99699.22;;;10.73;nan
31225;BME280;17847;31.524;74.366;2024-01-07T06:32:55;99691.25;;;10.81;nan
31225;BME280;17847;31.524;74.366;2024-01-07T06:35:25;99684.38;;;11.50;nan
31225;BME280;17847;31.524;74.366;2024-01-07T06:37:55;99680.38;;;11.54;nan
31225;BME280;17847;31.524;74.366;2024-01-07T06:40:24;99683.59;;;11.33;nan
31225;BME280;17847;31.524;74.366;2024-01-07T06:42:54;99679.63;;;12.13;nan
31225;BME280;17847;31.524;74.366;2024-01-07T06:45:25;99678.47;;;12.16;nan
31225;BME280;17847;31.524;74.366;2024-01-07T06:47:54;99682.63;;;12.33;nan
31225;BME280;17847;31.524;74.366;2024-01-07T06:50:24;99674.38;;;12.28;nan
31225;BME280;17847;31.524;74.366;2024-01-07T06:52:54;99673.78;;;12.18;nan
31225;BME280;17847;31.524;74.366;2024-01-07T06:55:23;99679.75;;;12.20;nan
31225;BME280;17847;31.524;74.366;2024-01-07T06:57:53;99666.78;;;12.25;nan
31225;BME280;17847;31.524;74.366;2024-01-07T07:00:23;99667.41;;;12.27;nan
31225;BME280;17847;31.524;74.366;2024-01-07T07:02:53;99659.47;;;12.04;nan
31225;BME280;17847;31.524;74.366;2024-01-07T07:05:22;99663.53;;;12.15;nan
31225;BME280;17847;31.524;74.366;2024-01-07T07:07:51;99668.53;;;12.33;nan
31225;BME280;17847;31.524;74.366;2024-01-07T07:10:22;99658.94;;;12.46;nan
31225;BME280;17847;31.524;74.366;2024-01-07T07:12:51;99663.84;;;12.35;nan
31225;BME280;17847;31.524;74.366;2024-01-07T07:15:21;99662.72;;;12.52;nan
31225;BME280;17847;31.524;74.366;2024-01-07T07:17:50;99649.75;;;12.49;nan
31225;BME280;17847;31.524;74.366;2024-01-07T07:20:20;99653.78;;;12.45;nan
31225;BME280;17847;31.524;74.366;2024-01-07T07:22:49;99650.34;;;12.59;nan
31225;BME280;17847;31.524;74.366;2024-01-07T07:25:19;99643.94;;;12.68;nan
31225;BME280;17847;31.524;74.366;2024-01-07T07:27:48;99644.00;;;12.89;nan
31225;BME280;17847;31.524;74.366;2024-01-07T07:30:18;99652.09;;;13.11;nan
31225;BME280;17847;31.524;74.366;2024-01-07T07:32:48;99651.22;;;13.10;nan
31225;BME280;17847;31.524;74.366;2024-01-07T07:35:17;99634.91;;;13.28;nan
31225;BME280;17847;31.524;74.366;2024-01-07T07:37:47;99641.00;;;13.22;nan
31225;BME280;17847;31.524;74.366;2024-01-07T07:40:17;99643.25;;;13.39;nan
31225;BME280;17847;31.524;74.366;2024-01-07T07:42:47;99635.22;;;13.18;nan
31225;BME280;17847;31.524;74.366;2024-01-07T07:45:17;99632.75;;;13.53;nan
31225;BME280;17847;31.524;74.366;2024-01-07T07:47:46;99625.91;;;13.65;nan
31225;BME280;17847;31.524;74.366;2024-01-07T07:50:16;99624.59;;;13.18;nan
31225;BME280;17847;31.524;74.366;2024-01-07T07:52:45;99616.78;;;13.17;nan
31225;BME280;17847;31.524;74.366;2024-01-07T07:55:14;99616.22;;;13.06;nan
31225;BME280;17847;31.524;74.366;2024-01-07T07:57:45;99613.03;;;13.11;nan
31225;BME280;17847;31.524;74.366;2024-01-07T08:00:15;99601.44;;;13.55;nan
31225;BME280;17847;31.524;74.366;2024-01-07T08:02:45;99604.97;;;14.04;nan
31225;BME280;17847;31.524;74.366;2024-01-07T08:05:15;99599.41;;;13.78;nan
31225;BME280;17847;31.524;74.366;2024-01-07T08:07:45;99590.56;;;13.71;nan
31225;BME280;17847;31.524;74.366;2024-01-07T08:10:15;99583.16;;;13.94;nan
31225;BME280;17847;31.524;74.366;2024-01-07T08:12:45;99579.38;;;13.82;nan
31225;BME280;17847;31.524;74.366;2024-01-07T08:15:14;99581.56;;;13.72;nan
31225;BME280;17847;31.524;74.366;2024-01-07T08:17:44;99575.16;;;13.45;nan
31225;BME280;17847;31.524;74.366;2024-01-07T08:20:14;99571.63;;;13.87;nan
31225;BME280;17847;31.524;74.366;2024-01-07T08:22:44;99569.47;;;13.97;nan
31225;BME280;17847;31.524;74.366;2024-01-07T08:25:13;99569.25;;;13.99;nan
31225;BME280;17847;31.524;74.366;2024-01-07T08:27:43;99560.94;;;14.08;nan
31225;BME280;17847;31.524;74.366;2024-01-07T08:30:13;99556.09;;;14.18;nan
31225;BME280;17847;31.524;74.366;2024-01-07T08:32:42;99555.94;;;14.26;nan
31225;BME280;17847;31.524;74.366;2024-01-07T08:35:12;99544.88;;;14.29;nan
31225;BME280;17847;31.524;74.366;2024-01-07T08:37:45;99539.34;;;14.24;nan
31225;BME280;17847;31.524;74.366;2024-01-07T08:40:15;99535.84;;;14.24;nan
31225;BME280;17847;31.524;74.366;2024-01-07T08:42:46;99525.38;;;13.94;nan
31225;BME280;17847;31.524;74.366;2024-01-07T08:45:15;99514.88;;;14.14;nan
31225;BME280;17847;31.524;74.366;2024-01-07T08:47:45;99520.25;;;14.21;nan
31225;BME280;17847;31.524;74.366;2024-01-07T08:50:15;99514.13;;;13.92;nan
31225;BME280;17847;31.524;74.366;2024-01-07T08:52:44;99513.56;;;14.04;nan
31225;BME280;17847;31.524;74.366;2024-01-07T08:55:17;99505.59;;;14.04;nan
31225;BME280;17847;31.524;74.366;2024-01-07T08:57:46;99501.06;;;13.98;nan
31225;BME280;17847;31.524;74.366;2024-01-07T09:00:18;99507.47;;;14.10;nan
31225;BME280;17847;31.524;74.366;2024-01-07T09:02:47;99498.56;;;14.24;nan
31225;BME280;17847;31.524;74.366;2024-01-07T09:05:17;99497.16;;;14.34;nan
31225;BME280;17847;31.524;74.366;2024-01-07T09:07:46;99491.16;;;14.19;nan
31225;BME280;17847;31.524;74.366;2024-01-07T09:10:16;99471.69;;;13.35;nan
31225;BME280;17847;31.524;74.366;2024-01-07T09:12:47;99477.03;;;13.91;nan
31225;BME280;17847;31.524;74.366;2024-01-07T09:15:19;99469.84;;;13.85;nan
31225;BME280;17847;31.524;74.366;2024-01-07T09:17:48;99474.34;;;13.84;nan
31225;BME280;17847;31.524;74.366;2024-01-07T09:20:18;99466.81;;;13.94;nan
31225;BME280;17847;31.524;74.366;2024-01-07T09:22:48;99467.25;;;13.98;nan
31225;BME280;17847;31.524;74.366;2024-01-07T09:25:18;99465.41;;;13.99;nan
31225;BME280;17847;31.524;74.366;2024-01-07T09:27:47;99466.13;;;14.14;nan
31225;BME280;17847;31.524;74.366;2024-01-07T09:30:17;99457.72;;;14.17;nan
31225;BME280;17847;31.524;74.366;2024-01-07T09:32:46;99457.22;;;14.00;nan
31225;BME280;17847;31.524;74.366;2024-01-07T09:35:15;99455.88;;;14.17;nan
31225;BME280;17847;31.524;74.366;2024-01-07T09:37:45;99448.03;;;14.03;nan
31225;BME280;17847;31.524;74.366;2024-01-07T09:40:18;99448.03;;;14.03;nan
31225;BME280;17847;31.524;74.366;2024-01-07T09:42:50;99447.97;;;13.62;nan
31225;BME280;17847;31.524;74.366;2024-01-07T09:45:21;99449.50;;;13.77;nan
31225;BME280;17847;31.524;74.366;2024-01-07T09:47:52;99432.31;;;13.80;nan
31225;BME280;17847;31.524;74.366;2024-01-07T09:50:22;99432.50;;;13.78;nan
31225;BME280;17847;31.524;74.366;2024-01-07T09:52:56;99434.31;;;13.43;nan
31225;BME280;17847;31.524;74.366;2024-01-07T09:55:40;99422.34;;;13.33;nan
31225;BME280;17847;31.524;74.366;2024-01-07T09:58:13;99432.69;;;13.21;nan
31225;BME280;17847;31.524;74.366;2024-01-07T10:00:42;99427.94;;;13.17;nan
31225;BME280;17847;31.524;74.366;2024-01-07T10:03:12;99424.06;;;13.19;nan
31225;BME280;17847;31.524;74.366;2024-01-07T10:05:42;99421.66;;;13.24;nan
31225;BME280;17847;31.524;74.366;2024-01-07T10:08:12;99424.63;;;13.36;nan
31225;BME280;17847;31.524;74.366;2024-01-07T10:10:42;99420.34;;;13.41;nan
31225;BME280;17847;31.524;74.366;2024-01-07T10:13:12;99425.22;;;13.31;nan
31225;BME280;17847;31.524;74.366;2024-01-07T10:15:42;99426.22;;;13.30;nan
31225;BME280;17847;31.524;74.366;2024-01-07T10:18:14;99417.66;;;13.35;nan
31225;BME280;17847;31.524;74.366;2024-01-07T10:20:43;99415.81;;;13.35;nan
31225;BME280;17847;31.524;74.366;2024-01-07T10:23:18;99420.00;;;13.23;nan
31225;BME280;17847;31.524;74.366;2024-01-07T10:25:48;99416.97;;;13.05;nan
31225;BME280;17847;31.524;74.366;2024-01-07T10:28:18;99416.09;;;13.19;nan
31225;BME280;17847;31.524;74.366;2024-01-07T10:30:51;99416.72;;;13.21;nan
31225;BME280;17847;31.524;74.366;2024-01-07T10:33:21;99417.94;;;13.19;nan
31225;BME280;17847;31.524;74.366;2024-01-07T10:36:01;99419.00;;;13.24;nan
31225;BME280;17847;31.524;74.366;2024-01-07T10:38:33;99418.69;;;13.13;nan
31225;BME280;17847;31.524;74.366;2024-01-07T10:41:05;99415.38;;;13.11;nan
31225;BME280;17847;31.524;74.366;2024-01-07T10:43:39;99417.59;;;12.86;nan
31225;BME280;17847;31.524;74.366;2024-01-07T10:46:12;99416.38;;;12.88;nan
31225;BME280;17847;31.524;74.366;2024-01-07T10:49:00;99411.31;;;12.72;nan
31225;BME280;17847;31.524;74.366;2024-01-07T10:51:34;99414.63;;;12.74;nan
31225;BME280;17847;31.524;74.366;2024-01-07T10:54:07;99414.81;;;12.73;nan
31225;BME280;17847;31.524;74.366;2024-01-07T10:56:45;99408.97;;;12.63;nan
31225;BME280;17847;31.524;74.366;2024-01-07T10:59:18;99411.63;;;12.63;nan
31225;BME280;17847;31.524;74.366;2024-01-07T11:01:48;99415.78;;;12.50;nan
31225;BME280;17847;31.524;74.366;2024-01-07T11:10:10;99397.16;;;12.29;nan
31225;BME280;17847;31.524;74.366;2024-01-07T11:12:41;99411.81;;;12.10;nan
31225;BME280;17847;31.524;74.366;2024-01-07T11:15:10;99404.97;;;12.16;nan
31225;BME280;17847;31.524;74.366;2024-01-07T11:17:42;99412.00;;;12.09;nan
31225;BME280;17847;31.524;74.366;2024-01-07T11:20:20;99400.19;;;11.97;nan
31225;BME280;17847;31.524;74.366;2024-01-07T11:22:50;99406.72;;;11.94;nan
31225;BME280;17847;31.524;74.366;2024-01-07T11:25:30;99400.94;;;11.91;nan
31225;BME280;17847;31.524;74.366;2024-01-07T11:28:02;99402.59;;;11.77;nan
31225;BME280;17847;31.524;74.366;2024-01-07T11:30:38;99403.47;;;11.69;nan
31225;BME280;17847;31.524;74.366;2024-01-07T11:33:12;99395.44;;;11.78;nan
31225;BME280;17847;31.524;74.366;2024-01-07T11:38:28;99408.94;;;11.53;nan
31225;BME280;17847;31.524;74.366;2024-01-07T11:40:57;99395.59;;;11.61;nan
31225;BME280;17847;31.524;74.366;2024-01-07T11:43:28;99399.44;;;11.44;nan
31225;BME280;17847;31.524;74.366;2024-01-07T11:45:58;99399.31;;;11.38;nan
31225;BME280;17847;31.524;74.366;2024-01-07T11:48:31;99399.50;;;11.36;nan
31225;BME280;17847;31.524;74.366;2024-01-07T11:51:01;99406.88;;;11.26;nan
31225;BME280;17847;31.524;74.366;2024-01-07T11:53:31;99409.25;;;11.21;nan
31225;BME280;17847;31.524;74.366;2024-01-07T11:56:00;99397.06;;;11.12;nan
31225;BME280;17847;31.524;74.366;2024-01-07T11:58:30;99396.78;;;11.07;nan
31225;BME280;17847;31.524;74.366;2024-01-07T12:01:00;99398.56;;;10.92;nan
31225;BME280;17847;31.524;74.366;2024-01-07T12:03:34;99389.13;;;10.89;nan
31225;BME280;17847;31.524;74.366;2024-01-07T12:06:04;99398.44;;;10.85;nan
31225;BME280;17847;31.524;74.366;2024-01-07T12:08:34;99393.56;;;10.74;nan
31225;BME280;17847;31.524;74.366;2024-01-07T12:11:04;99392.03;;;10.79;nan
31225;BME280;17847;31.524;74.366;2024-01-07T12:13:34;99382.84;;;10.67;nan
31225;BME280;17847;31.524;74.366;2024-01-07T12:16:09;99383.41;;;10.55;nan
31225;BME280;17847;31.524;74.366;2024-01-07T12:18:39;99385.28;;;10.46;nan
31225;BME280;17847;31.524;74.366;2024-01-07T12:21:09;99387.47;;;10.43;nan
31225;BME280;17847;31.524;74.366;2024-01-07T12:23:39;99384.88;;;10.34;nan
31225;BME280;17847;31.524;74.366;2024-01-07T12:26:11;99381.25;;;10.27;nan
31225;BME280;17847;31.524;74.366;2024-01-07T12:28:41;99383.44;;;10.24;nan
31225;BME280;17847;31.524;74.366;2024-01-07T12:31:10;99385.78;;;10.19;nan
31225;BME280;17847;31.524;74.366;2024-01-07T12:33:40;99389.91;;;10.21;nan
31225;BME280;17847;31.524;74.366;2024-01-07T12:36:10;99386.13;;;10.16;nan
31225;BME280;17847;31.524;74.366;2024-01-07T12:38:40;99379.34;;;10.05;nan
31225;BME280;17847;31.524;74.366;2024-01-07T12:41:10;99387.16;;;9.99;nan
31225;BME280;17847;31.524;74.366;2024-01-07T12:43:40;99387.34;;;9.97;nan
31225;BME280;17847;31.524;74.366;2024-01-07T12:46:10;99387.38;;;9.89;nan
31225;BME280;17847;31.524;74.366;2024-01-07T12:48:39;99384.88;;;9.87;nan
31225;BME280;17847;31.524;74.366;2024-01-07T12:51:09;99394.44;;;9.97;nan
31225;BME280;17847;31.524;74.366;2024-01-07T12:53:39;99393.31;;;9.91;nan
31225;BME280;17847;31.524;74.366;2024-01-07T12:56:09;99397.78;;;9.90;nan
31225;BME280;17847;31.524;74.366;2024-01-07T12:58:38;99401.78;;;9.86;nan
31225;BME280;17847;31.524;74.366;2024-01-07T13:01:08;99404.03;;;9.98;nan
31225;BME280;17847;31.524;74.366;2024-01-07T13:03:38;99406.88;;;9.88;nan
31225;BME280;17847;31.524;74.366;2024-01-07T13:06:08;99403.78;;;9.76;nan
31225;BME280;17847;31.524;74.366;2024-01-07T13:08:37;99398.84;;;9.65;nan
31225;BME280;17847;31.524;74.366;2024-01-07T13:11:07;99412.06;;;9.73;nan
31225;BME280;17847;31.524;74.366;2024-01-07T13:13:37;99414.91;;;9.64;nan
31225;BME280;17847;31.524;74.366;2024-01-07T13:16:07;99411.56;;;9.70;nan
31225;BME280;17847;31.524;74.366;2024-01-07T13:18:37;99413.38;;;9.69;nan
31225;BME280;17847;31.524;74.366;2024-01-07T13:21:06;99410.69;;;9.85;nan
31225;BME280;17847;31.524;74.366;2024-01-07T13:23:36;99409.72;;;9.78;nan
31225;BME280;17847;31.524;74.366;2024-01-07T13:26:05;99418.41;;;10.03;nan
31225;BME280;17847;31.524;74.366;2024-01-07T13:28:35;99424.03;;;10.00;nan
31225;BME280;17847;31.524;74.366;2024-01-07T13:31:04;99421.38;;;10.00;nan
31225;BME280;17847;31.524;74.366;2024-01-07T13:33:36;99426.88;;;9.82;nan
31225;BME280;17847;31.524;74.366;2024-01-07T13:36:06;99418.44;;;9.87;nan
31225;BME280;17847;31.524;74.366;2024-01-07T13:38:38;99430.13;;;10.17;nan
31225;BME280;17847;31.524;74.366;2024-01-07T13:41:12;99429.94;;;10.10;nan